Main page
METAR-TAF:

METAR-TAF

Airports :

Greenwood–Leflore Airport

Greenwood, Mississippi, United States

latitude: 33-29-33N, longitude: 090-05-01W, elevation: 154 ft

Current weather observation

The report was made 1 hour and 21 minutes ago, at 03:53 UTC
Wind 5 mph from the East/Northeast
Temperature 77°F
Humidity 79%
Pressure 30.16 in. Hg
Visibility: 10 miles
Clear sky

METAR: KGWO 200353Z AUTO 06004KT 10SM CLR 25/21 A3016 RMK AO2 SLP211 T02500211

Time: 00:14 (05:14 UTC)

Forecast

The report was made 5 hours and 29 minutes ago, at 23:45 UTC
Forecast valid from 20 at 00 UTC to 20 at 24 UTC
Wind 8 mph from the East
Visibility: 6 miles
Scattered clouds at a height of 9000 ft
Broken clouds at a height of 25000 ft

TAF: KGWO 192345Z 2000/2024 09007KT P6SM SCT090 BKN250

Weather observations and forecasts of more than 4000 airports (METAR and TAF reports).

The available stations are represented by yellow and red dots on the map.

Hover mouse over dot to see the name of the station.

Then click to see weather observations and forecasts.

To change the map : click on the green buttons with a black cross to zoom in, on the green button with a dash to zoom out, or on the green arrows for adjacent maps.


METAR-TAF: